createdAt,value
2023-01-29T00:02:05.717Z,-1.73
2023-01-29T00:04:34.152Z,-1.76
2023-01-29T00:07:01.847Z,-1.81
2023-01-29T00:09:29.513Z,-1.85
2023-01-29T00:11:57.342Z,-1.88
2023-01-29T00:14:27.279Z,-1.91
2023-01-29T00:16:55.148Z,-1.94
2023-01-29T00:19:23.180Z,-1.96
2023-01-29T00:21:50.816Z,-1.96
2023-01-29T00:24:18.542Z,-1.93
2023-01-29T00:26:46.148Z,-1.90
2023-01-29T00:29:13.881Z,-1.87
2023-01-29T00:31:45.137Z,-1.83
2023-01-29T00:34:12.950Z,-1.78
2023-01-29T00:36:40.651Z,-1.74
2023-01-29T00:39:11.033Z,-1.68
2023-01-29T00:41:54.874Z,-1.62
2023-01-29T00:44:38.489Z,-1.57
2023-01-29T00:47:26.949Z,-1.51
2023-01-29T00:49:55.057Z,-1.47
2023-01-29T00:52:24.060Z,-1.44
2023-01-29T00:55:00.162Z,-1.39
2023-01-29T00:57:30.026Z,-1.34
2023-01-29T00:59:58.083Z,-1.30
2023-01-29T01:02:42.526Z,-1.28
2023-01-29T01:05:14.182Z,-1.27
2023-01-29T01:07:41.950Z,-1.25
2023-01-29T01:10:21.558Z,-1.24
2023-01-29T01:12:58.365Z,-1.23
2023-01-29T01:15:32.277Z,-1.23
2023-01-29T01:18:01.807Z,-1.22
2023-01-29T01:20:32.496Z,-1.21
2023-01-29T01:23:00.128Z,-1.18
2023-01-29T01:25:27.831Z,-1.16
2023-01-29T01:30:27.951Z,-1.14
2023-01-29T01:32:55.636Z,-1.12
2023-01-29T01:35:23.381Z,-1.11
2023-01-29T01:37:51.063Z,-1.12
2023-01-29T01:40:22.643Z,-1.15
2023-01-29T01:42:53.411Z,-1.15
2023-01-29T01:45:26.215Z,-1.12
2023-01-29T01:48:03.839Z,-1.10
2023-01-29T01:50:53.333Z,-1.08
2023-01-29T01:53:30.529Z,-1.06
2023-01-29T01:56:12.344Z,-1.05
2023-01-29T01:58:50.310Z,-1.03
2023-01-29T02:01:21.273Z,-1.00
2023-01-29T02:04:14.211Z,-0.98
2023-01-29T02:06:59.070Z,-0.98
2023-01-29T02:09:35.688Z,-0.98
2023-01-29T02:12:09.665Z,-0.99
2023-01-29T02:14:40.227Z,-1.03
2023-01-29T02:17:14.174Z,-1.04
2023-01-29T02:19:53.144Z,-1.05
2023-01-29T02:22:33.047Z,-1.05
2023-01-29T02:25:16.615Z,-1.06
2023-01-29T02:28:00.190Z,-1.06
2023-01-29T02:30:36.414Z,-1.05
2023-01-29T02:33:11.047Z,-1.04
2023-01-29T02:35:49.089Z,-1.03
2023-01-29T02:38:27.349Z,-1.02
2023-01-29T02:41:10.886Z,-1.02
2023-01-29T02:43:47.476Z,-1.02
2023-01-29T02:46:27.562Z,-1.02
2023-01-29T02:49:23.261Z,-1.03
2023-01-29T02:51:59.671Z,-1.01
2023-01-29T02:54:45.184Z,-1.01
2023-01-29T02:57:34.749Z,-1.00
2023-01-29T03:00:09.067Z,-1.01
2023-01-29T03:02:51.606Z,-1.02
2023-01-29T03:05:43.401Z,-1.04
2023-01-29T03:08:18.526Z,-1.05
2023-01-29T03:10:59.359Z,-1.05
2023-01-29T03:14:03.346Z,-1.06
2023-01-29T03:16:53.512Z,-1.06
2023-01-29T03:19:40.989Z,-1.06
2023-01-29T03:22:13.637Z,-1.05
2023-01-29T03:25:05.900Z,-1.04
2023-01-29T03:27:56.899Z,-1.03
2023-01-29T03:30:45.356Z,-1.03
2023-01-29T03:33:17.291Z,-1.02
2023-01-29T03:35:53.102Z,-1.02
2023-01-29T03:38:20.891Z,-1.00
2023-01-29T03:41:23.090Z,-1.00
2023-01-29T03:44:10.863Z,-1.00
2023-01-29T03:46:56.530Z,-1.00
2023-01-29T03:49:43.869Z,-1.00
2023-01-29T03:52:34.943Z,-0.99
2023-01-29T03:55:10.932Z,-0.98
2023-01-29T03:58:00.900Z,-0.97
2023-01-29T04:00:32.805Z,-0.96
2023-01-29T04:03:08.757Z,-0.97
2023-01-29T04:05:48.197Z,-0.97
2023-01-29T04:08:23.817Z,-0.98
2023-01-29T04:10:56.602Z,-1.00
2023-01-29T04:13:25.584Z,-1.03
2023-01-29T04:15:58.082Z,-1.05
2023-01-29T04:18:25.771Z,-1.08
2023-01-29T04:20:53.952Z,-1.09
2023-01-29T04:23:25.507Z,-1.12
2023-01-29T04:26:29.362Z,-1.11
2023-01-29T04:29:19.012Z,-1.11
2023-01-29T04:32:09.610Z,-1.10
2023-01-29T04:34:53.682Z,-1.10
2023-01-29T04:37:43.980Z,-1.08
2023-01-29T04:40:32.191Z,-1.06
2023-01-29T04:43:29.700Z,-1.04
2023-01-29T04:46:39.621Z,-1.02
2023-01-29T04:49:20.902Z,-1.01
2023-01-29T04:52:13.764Z,-1.00
2023-01-29T04:54:51.805Z,-1.00
2023-01-29T04:57:28.329Z,-1.01
2023-01-29T05:00:07.265Z,-1.02
2023-01-29T05:02:39.374Z,-1.05
2023-01-29T05:05:09.542Z,-1.07
2023-01-29T05:07:39.369Z,-1.11
2023-01-29T05:10:10.620Z,-1.15
2023-01-29T05:12:39.566Z,-1.19
2023-01-29T05:15:15.557Z,-1.20
2023-01-29T05:17:43.344Z,-1.23
2023-01-29T05:20:11.914Z,-1.26
2023-01-29T05:22:42.536Z,-1.29
2023-01-29T05:25:22.615Z,-1.33
2023-01-29T05:28:07.995Z,-1.36
2023-01-29T05:30:38.053Z,-1.36
2023-01-29T05:33:15.284Z,-1.38
2023-01-29T05:35:43.028Z,-1.40
2023-01-29T05:38:10.742Z,-1.42
2023-01-29T05:40:38.433Z,-1.44
2023-01-29T05:43:11.803Z,-1.46
2023-01-29T05:45:39.450Z,-1.46
2023-01-29T05:48:07.062Z,-1.45
2023-01-29T05:50:34.690Z,-1.45
2023-01-29T05:53:02.722Z,-1.47
2023-01-29T05:55:30.422Z,-1.48
2023-01-29T05:57:58.059Z,-1.48
2023-01-29T06:00:25.861Z,-1.46
2023-01-29T06:02:53.599Z,-1.46
2023-01-29T06:05:21.421Z,-1.46
2023-01-29T06:07:49.089Z,-1.47
2023-01-29T06:10:18.773Z,-1.49
2023-01-29T06:12:47.043Z,-1.50
2023-01-29T06:15:19.699Z,-1.50
2023-01-29T06:17:47.357Z,-1.50
2023-01-29T06:20:15.579Z,-1.50
2023-01-29T06:22:43.457Z,-1.49
2023-01-29T06:25:11.117Z,-1.49
2023-01-29T06:27:38.721Z,-1.48
2023-01-29T06:30:07.793Z,-1.46
2023-01-29T06:32:35.599Z,-1.45
2023-01-29T06:35:04.111Z,-1.45
2023-01-29T06:37:31.720Z,-1.42
2023-01-29T06:39:59.342Z,-1.40
2023-01-29T06:42:28.212Z,-1.38
2023-01-29T06:44:56.807Z,-1.38
2023-01-29T06:47:24.796Z,-1.38
2023-01-29T06:49:52.408Z,-1.39
2023-01-29T06:52:20.060Z,-1.39
2023-01-29T06:54:47.715Z,-1.39
2023-01-29T06:57:15.567Z,-1.39
2023-01-29T06:59:43.165Z,-1.38
2023-01-29T07:02:11.064Z,-1.38
2023-01-29T07:04:39.259Z,-1.37
2023-01-29T07:07:13.155Z,-1.37
2023-01-29T07:09:41.869Z,-1.35
2023-01-29T07:12:10.632Z,-1.32
2023-01-29T07:14:38.262Z,-1.30
2023-01-29T07:17:05.961Z,-1.28
2023-01-29T07:19:33.623Z,-1.25
2023-01-29T07:22:03.233Z,-1.22
2023-01-29T07:24:30.965Z,-1.21
2023-01-29T07:26:58.731Z,-1.21
2023-01-29T07:29:26.510Z,-1.20
2023-01-29T07:31:54.263Z,-1.20
2023-01-29T07:34:22.065Z,-1.20
2023-01-29T07:36:52.538Z,-1.21
2023-01-29T07:39:20.140Z,-1.19
2023-01-29T07:41:47.772Z,-1.17
2023-01-29T07:44:15.362Z,-1.14
2023-01-29T07:46:43.703Z,-1.14
2023-01-29T07:49:11.390Z,-1.14
2023-01-29T07:51:39.029Z,-1.12
2023-01-29T07:54:06.738Z,-1.10
2023-01-29T07:56:34.332Z,-1.08
2023-01-29T07:59:01.955Z,-1.07
2023-01-29T08:01:29.600Z,-1.05
2023-01-29T08:03:57.617Z,-1.03
2023-01-29T08:06:25.416Z,-1.00
2023-01-29T08:08:53.536Z,-0.95
2023-01-29T08:11:21.186Z,-0.92
2023-01-29T08:13:48.789Z,-0.92
2023-01-29T08:16:16.745Z,-0.88
2023-01-29T08:18:47.650Z,-0.84
2023-01-29T08:21:15.851Z,-0.81
2023-01-29T08:23:43.552Z,-0.78
2023-01-29T08:26:11.302Z,-0.74
2023-01-29T08:28:38.994Z,-0.73
2023-01-29T08:31:16.279Z,-0.71
2023-01-29T08:33:43.987Z,-0.71
2023-01-29T08:36:11.976Z,-0.69
2023-01-29T08:38:41.294Z,-0.65
2023-01-29T08:41:08.926Z,-0.58
2023-01-29T08:43:40.571Z,-0.51
2023-01-29T08:46:08.611Z,-0.41
2023-01-29T08:48:36.316Z,-0.33
2023-01-29T08:51:04.735Z,-0.28
2023-01-29T08:53:33.267Z,-0.24
2023-01-29T08:56:01.353Z,-0.19
2023-01-29T08:58:29.233Z,-0.14
2023-01-29T09:00:56.897Z,-0.09
2023-01-29T09:03:24.606Z,-0.03
2023-01-29T09:05:52.247Z,-0.03
2023-01-29T09:08:19.870Z,-0.02
2023-01-29T09:10:47.476Z,-0.00
2023-01-29T09:13:15.117Z,-0.05
2023-01-29T09:15:42.838Z,-0.06
2023-01-29T09:18:10.828Z,-0.07
2023-01-29T09:20:38.873Z,-0.06
2023-01-29T09:23:08.327Z,-0.05
2023-01-29T09:25:37.306Z,-0.07
2023-01-29T09:28:06.230Z,-0.06
2023-01-29T09:30:37.500Z,-0.04
2023-01-29T09:33:06.645Z,-0.05
2023-01-29T09:35:34.997Z,-0.07
2023-01-29T09:38:02.670Z,-0.10
2023-01-29T09:40:39.497Z,-0.10
2023-01-29T09:43:14.046Z,-0.07
2023-01-29T09:45:52.185Z,-0.05
2023-01-29T09:48:22.064Z,-0.07
2023-01-29T09:50:55.145Z,-0.06
2023-01-29T09:53:32.640Z,-0.08
2023-01-29T09:56:06.083Z,-0.12
2023-01-29T09:58:38.428Z,-0.14
2023-01-29T10:01:22.447Z,-0.14
2023-01-29T10:04:11.323Z,-0.17
2023-01-29T10:07:10.932Z,-0.19
2023-01-29T10:09:58.627Z,-0.18
2023-01-29T10:13:02.529Z,-0.17
2023-01-29T10:15:38.909Z,-0.18
2023-01-29T10:18:15.587Z,-0.18
2023-01-29T10:20:59.154Z,-0.18
2023-01-29T10:23:31.531Z,-0.18
2023-01-29T10:26:01.113Z,-0.19
2023-01-29T10:28:47.607Z,-0.22
2023-01-29T10:31:25.354Z,-0.21
2023-01-29T10:34:03.448Z,-0.22
2023-01-29T10:36:42.704Z,-0.24
2023-01-29T10:39:19.664Z,-0.23
2023-01-29T10:42:05.554Z,-0.23
2023-01-29T10:44:59.442Z,-0.24
2023-01-29T10:47:49.325Z,-0.24
2023-01-29T10:50:26.514Z,-0.21
2023-01-29T10:53:03.100Z,-0.20
2023-01-29T10:55:54.072Z,-0.19
2023-01-29T10:58:26.051Z,-0.16
2023-01-29T11:00:53.690Z,-0.14
2023-01-29T11:03:30.584Z,-0.13
2023-01-29T11:05:58.351Z,-0.08
2023-01-29T11:08:33.595Z,-0.03
2023-01-29T11:11:12.332Z,0.01
2023-01-29T11:14:06.926Z,0.02
2023-01-29T11:16:43.649Z,0.06
2023-01-29T11:19:11.680Z,0.07
2023-01-29T11:21:51.782Z,0.10
2023-01-29T11:24:19.541Z,0.12
2023-01-29T11:26:49.387Z,0.14
2023-01-29T11:29:48.981Z,0.18
2023-01-29T11:32:19.737Z,0.22
2023-01-29T11:35:05.007Z,0.24
2023-01-29T11:37:39.183Z,0.23
2023-01-29T11:40:35.050Z,0.20
2023-01-29T11:43:34.608Z,0.20
2023-01-29T11:46:11.530Z,0.20
2023-01-29T11:48:51.684Z,0.19
2023-01-29T11:51:28.017Z,0.20
2023-01-29T11:54:00.300Z,0.22
2023-01-29T11:56:39.510Z,0.24
2023-01-29T11:59:27.232Z,0.25
2023-01-29T12:01:55.706Z,0.24
2023-01-29T12:04:26.561Z,0.23
2023-01-29T12:06:54.760Z,0.21
2023-01-29T12:09:29.481Z,0.18
2023-01-29T12:12:36.755Z,0.16
2023-01-29T12:15:05.827Z,0.10
2023-01-29T12:17:37.747Z,0.09
2023-01-29T12:20:13.862Z,0.08
2023-01-29T12:22:57.064Z,0.07
2023-01-29T12:25:45.874Z,0.07
2023-01-29T12:28:44.135Z,0.11
2023-01-29T12:31:17.662Z,0.15
2023-01-29T12:34:02.357Z,0.18
2023-01-29T12:36:47.045Z,0.21
2023-01-29T12:39:17.601Z,0.22
2023-01-29T12:41:53.157Z,0.22
2023-01-29T12:44:37.029Z,0.22
2023-01-29T12:47:08.236Z,0.22
2023-01-29T12:49:39.670Z,0.19
2023-01-29T12:52:07.313Z,0.15
2023-01-29T12:54:42.314Z,0.09
2023-01-29T12:57:42.754Z,0.03
2023-01-29T13:00:42.295Z,-0.04
2023-01-29T13:03:31.677Z,-0.07
2023-01-29T13:06:09.534Z,-0.08
2023-01-29T13:08:43.214Z,-0.10
2023-01-29T13:11:17.648Z,-0.13
2023-01-29T13:13:54.101Z,-0.12
2023-01-29T13:16:30.899Z,-0.11
2023-01-29T13:19:24.271Z,-0.10
2023-01-29T13:21:54.505Z,-0.09
2023-01-29T13:24:25.687Z,-0.10
2023-01-29T13:26:53.652Z,-0.10
2023-01-29T13:29:23.185Z,-0.10
2023-01-29T13:31:56.227Z,-0.11
2023-01-29T13:34:23.949Z,-0.11
2023-01-29T13:37:01.746Z,-0.12
2023-01-29T13:39:44.378Z,-0.13
2023-01-29T13:42:21.943Z,-0.13
2023-01-29T13:44:53.029Z,-0.16
2023-01-29T13:47:26.707Z,-0.16
2023-01-29T13:50:07.659Z,-0.16
2023-01-29T13:52:44.679Z,-0.17
2023-01-29T13:55:15.854Z,-0.16
2023-01-29T13:57:43.693Z,-0.15
2023-01-29T14:00:33.464Z,-0.13
2023-01-29T14:03:01.281Z,-0.13
2023-01-29T14:05:29.875Z,-0.13
2023-01-29T14:08:02.028Z,-0.12
2023-01-29T14:10:32.283Z,-0.12
2023-01-29T14:13:17.952Z,-0.14
2023-01-29T14:16:06.985Z,-0.12
2023-01-29T14:18:36.729Z,-0.11
2023-01-29T14:21:21.840Z,-0.12
2023-01-29T14:23:52.727Z,-0.11
2023-01-29T14:26:45.147Z,-0.11
2023-01-29T14:29:14.558Z,-0.09
2023-01-29T14:32:00.035Z,-0.08
2023-01-29T14:34:27.820Z,-0.07
2023-01-29T14:37:23.208Z,-0.07
2023-01-29T14:40:25.075Z,-0.06
2023-01-29T14:43:20.893Z,-0.05
2023-01-29T14:45:49.704Z,-0.05
2023-01-29T14:48:39.131Z,-0.05
2023-01-29T14:51:11.013Z,-0.05
2023-01-29T14:54:03.663Z,-0.05
2023-01-29T14:56:36.038Z,-0.05
2023-01-29T14:59:21.954Z,-0.06
2023-01-29T15:01:55.941Z,-0.06
2023-01-29T15:04:28.861Z,-0.07
2023-01-29T15:07:04.246Z,-0.10
2023-01-29T15:09:55.463Z,-0.12
2023-01-29T15:12:42.878Z,-0.13
2023-01-29T15:15:33.696Z,-0.15
2023-01-29T15:18:20.625Z,-0.17
2023-01-29T15:20:48.298Z,-0.18
2023-01-29T15:23:33.070Z,-0.19
2023-01-29T15:26:04.360Z,-0.20
2023-01-29T15:28:34.481Z,-0.20
2023-01-29T15:31:05.611Z,-0.21
2023-01-29T15:33:38.497Z,-0.22
2023-01-29T15:36:08.022Z,-0.22
2023-01-29T15:38:36.248Z,-0.21
2023-01-29T15:41:21.340Z,-0.22
2023-01-29T15:43:56.599Z,-0.21
2023-01-29T15:46:33.743Z,-0.21
2023-01-29T15:49:08.001Z,-0.22
2023-01-29T15:51:36.184Z,-0.21
2023-01-29T15:54:08.436Z,-0.21
2023-01-29T15:56:40.705Z,-0.21
2023-01-29T15:59:17.948Z,-0.20
2023-01-29T16:01:45.762Z,-0.18
2023-01-29T16:04:20.759Z,-0.17
2023-01-29T16:06:51.911Z,-0.15
2023-01-29T16:09:23.582Z,-0.14
2023-01-29T16:11:53.361Z,-0.12
2023-01-29T16:14:25.638Z,-0.12
2023-01-29T16:16:53.922Z,-0.11
2023-01-29T16:19:28.396Z,-0.11
2023-01-29T16:22:02.008Z,-0.10
2023-01-29T16:24:32.587Z,-0.13
2023-01-29T16:27:07.595Z,-0.14
2023-01-29T16:29:35.879Z,-0.17
2023-01-29T16:32:05.155Z,-0.17
2023-01-29T16:34:38.481Z,-0.17
2023-01-29T16:37:17.935Z,-0.18
2023-01-29T16:39:48.277Z,-0.17
2023-01-29T16:42:20.110Z,-0.18
2023-01-29T16:45:05.181Z,-0.17
2023-01-29T16:47:36.264Z,-0.17
2023-01-29T16:50:23.724Z,-0.16
2023-01-29T16:53:01.115Z,-0.15
2023-01-29T16:55:46.904Z,-0.13
2023-01-29T16:58:21.761Z,-0.14
2023-01-29T17:00:58.176Z,-0.14
2023-01-29T17:03:28.491Z,-0.12
2023-01-29T17:05:56.381Z,-0.11
2023-01-29T17:08:34.188Z,-0.12
2023-01-29T17:11:02.896Z,-0.14
2023-01-29T17:13:40.246Z,-0.14
2023-01-29T17:16:48.839Z,-0.14
2023-01-29T17:19:20.657Z,-0.14
2023-01-29T17:21:48.313Z,-0.13
2023-01-29T17:24:16.084Z,-0.14
2023-01-29T17:26:43.983Z,-0.15
2023-01-29T17:29:19.986Z,-0.15
2023-01-29T17:31:47.651Z,-0.16
2023-01-29T17:34:16.631Z,-0.15
2023-01-29T17:36:44.879Z,-0.13
2023-01-29T17:39:20.892Z,-0.13
2023-01-29T17:41:51.569Z,-0.13
2023-01-29T17:44:19.299Z,-0.13
2023-01-29T17:46:47.792Z,-0.13
2023-01-29T17:49:25.498Z,-0.13
2023-01-29T17:51:54.457Z,-0.11
2023-01-29T17:54:23.037Z,-0.11
2023-01-29T17:56:51.228Z,-0.11
2023-01-29T17:59:21.943Z,-0.12
2023-01-29T18:01:51.192Z,-0.11
2023-01-29T18:04:18.981Z,-0.09
2023-01-29T18:06:49.598Z,-0.08
2023-01-29T18:09:22.961Z,-0.07
2023-01-29T18:11:51.305Z,-0.07
2023-01-29T18:14:19.184Z,-0.07
2023-01-29T18:16:47.037Z,-0.07
2023-01-29T18:19:31.128Z,-0.07
2023-01-29T18:21:58.874Z,-0.08
2023-01-29T18:24:26.616Z,-0.09
2023-01-29T18:26:54.450Z,-0.10
2023-01-29T18:29:22.156Z,-0.12
2023-01-29T18:31:49.846Z,-0.13
2023-01-29T18:34:17.612Z,-0.15
2023-01-29T18:36:47.621Z,-0.17
2023-01-29T18:39:15.868Z,-0.17
2023-01-29T18:41:44.072Z,-0.18
2023-01-29T18:44:11.785Z,-0.18
2023-01-29T18:46:39.418Z,-0.19
2023-01-29T18:49:07.083Z,-0.19
2023-01-29T18:51:34.744Z,-0.19
2023-01-29T18:54:02.414Z,-0.18
2023-01-29T18:56:30.055Z,-0.17
2023-01-29T18:58:57.691Z,-0.17
2023-01-29T19:01:27.161Z,-0.18
2023-01-29T19:03:56.080Z,-0.17
2023-01-29T19:06:23.754Z,-0.16
2023-01-29T19:08:51.360Z,-0.17
2023-01-29T19:11:19.060Z,-0.17
2023-01-29T19:13:47.945Z,-0.18
2023-01-29T19:16:15.653Z,-0.19
2023-01-29T19:18:43.674Z,-0.20
2023-01-29T19:21:15.873Z,-0.20
2023-01-29T19:23:44.849Z,-0.20
2023-01-29T19:26:13.590Z,-0.20
2023-01-29T19:28:41.808Z,-0.20
2023-01-29T19:31:09.589Z,-0.18
2023-01-29T19:33:39.294Z,-0.17
2023-01-29T19:36:07.597Z,-0.17
2023-01-29T19:38:38.486Z,-0.15
2023-01-29T19:41:06.245Z,-0.14
2023-01-29T19:43:33.944Z,-0.13
2023-01-29T19:46:01.933Z,-0.12
2023-01-29T19:48:29.688Z,-0.11
2023-01-29T19:51:04.245Z,-0.11
2023-01-29T19:53:32.131Z,-0.09
2023-01-29T19:56:02.612Z,-0.07
2023-01-29T19:58:31.910Z,-0.06
2023-01-29T20:01:04.929Z,-0.06
2023-01-29T20:03:33.072Z,-0.04
2023-01-29T20:06:06.125Z,-0.03
2023-01-29T20:08:35.031Z,-0.01
2023-01-29T20:11:04.245Z,0.01
2023-01-29T20:13:32.744Z,0.03
2023-01-29T20:16:05.310Z,0.03
2023-01-29T20:18:32.983Z,0.04
2023-01-29T20:21:06.784Z,0.04
2023-01-29T20:23:37.989Z,0.04
2023-01-29T20:26:08.178Z,0.04
2023-01-29T20:28:36.518Z,0.04
2023-01-29T20:31:05.733Z,0.04
2023-01-29T20:33:35.051Z,0.04
2023-01-29T20:36:05.879Z,0.04
2023-01-29T20:38:34.760Z,0.05
2023-01-29T20:41:04.045Z,0.05
2023-01-29T20:43:32.121Z,0.05
2023-01-29T20:46:00.894Z,0.05
2023-01-29T20:48:28.580Z,0.05
2023-01-29T20:50:56.914Z,0.06
2023-01-29T20:53:24.608Z,0.07
2023-01-29T20:55:52.423Z,0.08
2023-01-29T20:58:20.099Z,0.08
2023-01-29T21:00:47.802Z,0.08
2023-01-29T21:03:15.423Z,0.08
2023-01-29T21:05:43.075Z,0.08
2023-01-29T21:08:11.891Z,0.09
2023-01-29T21:10:39.534Z,0.10
2023-01-29T21:13:07.152Z,0.11
2023-01-29T21:15:34.791Z,0.11
2023-01-29T21:18:04.263Z,0.11
2023-01-29T21:20:32.936Z,0.12
2023-01-29T21:23:04.208Z,0.13
2023-01-29T21:25:33.858Z,0.14
2023-01-29T21:28:04.203Z,0.15
2023-01-29T21:30:32.471Z,0.16
2023-01-29T21:33:00.124Z,0.16
2023-01-29T21:35:27.739Z,0.17
2023-01-29T21:37:55.398Z,0.18
2023-01-29T21:40:26.605Z,0.18
2023-01-29T21:43:10.172Z,0.18
2023-01-29T21:45:39.155Z,0.19
2023-01-29T21:48:07.453Z,0.19
2023-01-29T21:50:35.632Z,0.19
2023-01-29T21:53:03.763Z,0.19
2023-01-29T21:55:32.464Z,0.18
2023-01-29T21:58:00.259Z,0.19
2023-01-29T22:00:28.287Z,0.19
2023-01-29T22:02:56.019Z,0.18
2023-01-29T22:05:24.341Z,0.18
2023-01-29T22:07:52.031Z,0.18
2023-01-29T22:10:20.618Z,0.18
2023-01-29T22:12:48.924Z,0.18
2023-01-29T22:15:16.660Z,0.18
2023-01-29T22:17:44.410Z,0.18
2023-01-29T22:20:13.954Z,0.19
2023-01-29T22:22:42.188Z,0.19
2023-01-29T22:25:10.207Z,0.20
2023-01-29T22:27:38.122Z,0.21
2023-01-29T22:30:06.670Z,0.21
2023-01-29T22:32:34.640Z,0.21
2023-01-29T22:35:02.376Z,0.21
2023-01-29T22:37:30.276Z,0.21
2023-01-29T22:39:57.959Z,0.20
2023-01-29T22:42:25.625Z,0.20
2023-01-29T22:44:53.509Z,0.21
2023-01-29T22:47:21.133Z,0.19
2023-01-29T22:49:53.215Z,0.20
2023-01-29T22:52:22.486Z,0.19
2023-01-29T22:54:51.472Z,0.19
2023-01-29T22:57:19.721Z,0.18
2023-01-29T22:59:47.386Z,0.16
2023-01-29T23:02:15.104Z,0.16
2023-01-29T23:04:43.158Z,0.15
2023-01-29T23:07:11.270Z,0.14
2023-01-29T23:09:38.963Z,0.14
2023-01-29T23:12:07.824Z,0.14
2023-01-29T23:14:35.512Z,0.13
2023-01-29T23:17:03.215Z,0.13
2023-01-29T23:19:30.874Z,0.12
2023-01-29T23:21:58.500Z,0.13
2023-01-29T23:24:26.161Z,0.12
2023-01-29T23:27:09.761Z,0.12
2023-01-29T23:29:37.417Z,0.11
2023-01-29T23:32:05.387Z,0.11
2023-01-29T23:34:33.040Z,0.10
2023-01-29T23:37:00.693Z,0.10
2023-01-29T23:39:28.415Z,0.10
2023-01-29T23:41:56.077Z,0.10
2023-01-29T23:44:23.845Z,0.10
2023-01-29T23:46:51.560Z,0.10
2023-01-29T23:49:19.402Z,0.11
2023-01-29T23:51:48.898Z,0.10
2023-01-29T23:54:17.511Z,0.11
2023-01-29T23:56:45.608Z,0.10
2023-01-29T23:59:13.355Z,0.10
